Disclaimer

Please do not use the information listed here in-flight or in-navigation, as they are not provided to us by the airports but are provided by volunteers, so they might be outdated.

Search


Regions


Airport information page

Radio informations:
Brisbane Center - 122.2 MHz
Common traffic adv. frequency (CTAF) - 126.0 MHz

Airport informations:
Latitude: 13° 58' 30.00" S
Longitude: 136° 27' 36.00" E
Elevation: 53 feet - 16 meters
Operating hours: N/A
Operating agency: Civil government, landing fees and diplomatic clearance may be required
Timezone: UTC+9:30
Fuel: Jet A1, without icing nhibitor.

100/130 MIL Spec, low lead, aviation gasoline (BLUE)

Runway information:
10/28 - 6237 x 98 feet< - >1901 x 30 meters

Recent METARs:
YGTE 141600Z AUTO 02003KT 9999 // NCD 26/25 Q1009
YGTE 141600Z AUTO 02003KT 9999 // NCD 26/25 Q1009
YGTE 141700Z AUTO 00000KT 9999 // NCD 25/24 Q1009

Airport on the map: